sensor_id;sensor_type;location;lat;lon;timestamp;pressure;altitude;pressure_sealevel;temperature;humidity
48792;BME280;34587;48.816;9.420;2023-09-30T00:00:02;99593.63;;;15.98;100.00
48792;BME280;34587;48.816;9.420;2023-09-30T04:15:53;99659.41;;;13.68;100.00
48792;BME280;34587;48.816;9.420;2023-09-30T04:18:18;99654.28;;;13.65;100.00
48792;BME280;34587;48.816;9.420;2023-09-30T04:20:47;99656.00;;;13.66;100.00
48792;BME280;34587;48.816;9.420;2023-09-30T04:23:12;99667.25;;;13.66;100.00
48792;BME280;34587;48.816;9.420;2023-09-30T04:25:38;99668.00;;;13.73;100.00
48792;BME280;34587;48.816;9.420;2023-09-30T04:28:05;99665.53;;;13.67;100.00
48792;BME280;34587;48.816;9.420;2023-09-30T04:30:30;99666.50;;;13.59;100.00
48792;BME280;34587;48.816;9.420;2023-09-30T04:32:58;99670.09;;;13.52;100.00
48792;BME280;34587;48.816;9.420;2023-09-30T04:35:23;99671.78;;;13.53;100.00
48792;BME280;34587;48.816;9.420;2023-09-30T04:37:50;99668.41;;;13.50;100.00
48792;BME280;34587;48.816;9.420;2023-09-30T04:40:16;99666.69;;;13.47;100.00
48792;BME280;34587;48.816;9.420;2023-09-30T04:42:45;99675.50;;;13.40;100.00
48792;BME280;34587;48.816;9.420;2023-09-30T04:45:12;99694.53;;;13.42;100.00
48792;BME280;34587;48.816;9.420;2023-09-30T04:47:38;99690.97;;;13.49;100.00
48792;BME280;34587;48.816;9.420;2023-09-30T04:50:08;99691.56;;;13.67;100.00
48792;BME280;34587;48.816;9.420;2023-09-30T04:52:37;99687.34;;;13.59;100.00
48792;BME280;34587;48.816;9.420;2023-09-30T04:55:04;99703.03;;;13.53;100.00
48792;BME280;34587;48.816;9.420;2023-09-30T04:57:29;99690.00;;;13.56;100.00
48792;BME280;34587;48.816;9.420;2023-09-30T04:59:55;99696.88;;;13.60;100.00
48792;BME280;34587;48.816;9.420;2023-09-30T05:02:22;99714.81;;;13.79;100.00
48792;BME280;34587;48.816;9.420;2023-09-30T05:04:48;99707.09;;;13.74;100.00
48792;BME280;34587;48.816;9.420;2023-09-30T05:07:13;99713.16;;;13.75;100.00
48792;BME280;34587;48.816;9.420;2023-09-30T05:09:39;99721.75;;;13.80;100.00
48792;BME280;34587;48.816;9.420;2023-09-30T05:12:04;99711.31;;;13.80;100.00
48792;BME280;34587;48.816;9.420;2023-09-30T05:14:30;99711.22;;;13.86;100.00
48792;BME280;34587;48.816;9.420;2023-09-30T05:16:56;99711.22;;;13.86;100.00
48792;BME280;34587;48.816;9.420;2023-09-30T05:19:22;99714.81;;;13.79;100.00
48792;BME280;34587;48.816;9.420;2023-09-30T05:21:47;99722.50;;;13.88;100.00
48792;BME280;34587;48.816;9.420;2023-09-30T05:24:12;99725.91;;;13.90;100.00
48792;BME280;34587;48.816;9.420;2023-09-30T05:26:38;99714.69;;;13.88;100.00
48792;BME280;34587;48.816;9.420;2023-09-30T05:29:03;99713.56;;;14.01;100.00
48792;BME280;34587;48.816;9.420;2023-09-30T05:31:28;99718.81;;;14.00;100.00
48792;BME280;34587;48.816;9.420;2023-09-30T05:33:54;99723.22;;;13.96;100.00
48792;BME280;34587;48.816;9.420;2023-09-30T05:36:20;99717.22;;;13.91;100.00
48792;BME280;34587;48.816;9.420;2023-09-30T05:38:46;99712.72;;;14.02;100.00
48792;BME280;34587;48.816;9.420;2023-09-30T05:41:14;99710.09;;;14.02;100.00
48792;BME280;34587;48.816;9.420;2023-09-30T05:43:39;99703.75;;;14.15;100.00
48792;BME280;34587;48.816;9.420;2023-09-30T05:46:06;99701.13;;;14.19;100.00
48792;BME280;34587;48.816;9.420;2023-09-30T05:48:31;99701.84;;;14.27;100.00
48792;BME280;34587;48.816;9.420;2023-09-30T05:50:56;99701.16;;;14.63;100.00
48792;BME280;34587;48.816;9.420;2023-09-30T05:53:22;99705.31;;;14.74;100.00
48792;BME280;34587;48.816;9.420;2023-09-30T05:55:47;99707.41;;;14.56;100.00
48792;BME280;34587;48.816;9.420;2023-09-30T05:58:14;99705.63;;;14.58;100.00
48792;BME280;34587;48.816;9.420;2023-09-30T06:00:41;99705.66;;;14.57;100.00
48792;BME280;34587;48.816;9.420;2023-09-30T06:03:07;99718.56;;;14.63;100.00
48792;BME280;34587;48.816;9.420;2023-09-30T06:05:33;99727.22;;;14.67;100.00
48792;BME280;34587;48.816;9.420;2023-09-30T06:08:00;99716.78;;;14.67;100.00
48792;BME280;34587;48.816;9.420;2023-09-30T06:10:28;99722.00;;;14.67;100.00
48792;BME280;34587;48.816;9.420;2023-09-30T06:12:53;99727.16;;;14.68;100.00
48792;BME280;34587;48.816;9.420;2023-09-30T06:15:20;99732.28;;;14.73;100.00
48792;BME280;34587;48.816;9.420;2023-09-30T06:17:47;99740.03;;;14.77;100.00
48792;BME280;34587;48.816;9.420;2023-09-30T06:20:13;99741.03;;;14.72;100.00
48792;BME280;34587;48.816;9.420;2023-09-30T06:22:42;99751.19;;;14.85;100.00
48792;BME280;34587;48.816;9.420;2023-09-30T06:25:14;99750.34;;;14.83;100.00
48792;BME280;34587;48.816;9.420;2023-09-30T06:27:44;99755.16;;;15.05;100.00
48792;BME280;34587;48.816;9.420;2023-09-30T06:30:10;99763.56;;;15.17;100.00
48792;BME280;34587;48.816;9.420;2023-09-30T06:32:36;99742.53;;;15.25;100.00
48792;BME280;34587;48.816;9.420;2023-09-30T06:35:02;99755.34;;;15.36;100.00
48792;BME280;34587;48.816;9.420;2023-09-30T06:37:28;99763.19;;;15.36;100.00
48792;BME280;34587;48.816;9.420;2023-09-30T06:39:54;99764.91;;;15.37;100.00
48792;BME280;34587;48.816;9.420;2023-09-30T06:42:21;99769.56;;;15.23;100.00
48792;BME280;34587;48.816;9.420;2023-09-30T06:44:46;99767.84;;;15.22;100.00
48792;BME280;34587;48.816;9.420;2023-09-30T06:47:12;99768.38;;;15.37;100.00
48792;BME280;34587;48.816;9.420;2023-09-30T06:49:38;99770.56;;;15.57;100.00
48792;BME280;34587;48.816;9.420;2023-09-30T06:52:04;99766.69;;;15.77;100.00
48792;BME280;34587;48.816;9.420;2023-09-30T06:54:30;99765.41;;;15.93;100.00
48792;BME280;34587;48.816;9.420;2023-09-30T06:56:56;99764.69;;;16.22;100.00
48792;BME280;34587;48.816;9.420;2023-09-30T06:59:21;99775.78;;;16.32;100.00
48792;BME280;34587;48.816;9.420;2023-09-30T07:01:47;99777.44;;;16.36;100.00
48792;BME280;34587;48.816;9.420;2023-09-30T07:04:12;99783.47;;;16.38;100.00
48792;BME280;34587;48.816;9.420;2023-09-30T07:06:37;99782.09;;;16.57;100.00
48792;BME280;34587;48.816;9.420;2023-09-30T07:09:03;99778.25;;;16.70;100.00
48792;BME280;34587;48.816;9.420;2023-09-30T07:11:30;99780.38;;;16.56;100.00
48792;BME280;34587;48.816;9.420;2023-09-30T07:13:58;99778.66;;;16.55;100.00
48792;BME280;34587;48.816;9.420;2023-09-30T07:16:24;99779.47;;;16.59;100.00
48792;BME280;34587;48.816;9.420;2023-09-30T07:18:49;99774.91;;;16.65;100.00
48792;BME280;34587;48.816;9.420;2023-09-30T07:21:15;99775.88;;;16.61;100.00
48792;BME280;34587;48.816;9.420;2023-09-30T07:23:41;99769.53;;;16.72;100.00
48792;BME280;34587;48.816;9.420;2023-09-30T07:26:06;99772.75;;;16.83;100.00
48792;BME280;34587;48.816;9.420;2023-09-30T07:28:33;99774.53;;;16.81;100.00
48792;BME280;34587;48.816;9.420;2023-09-30T07:30:58;99784.41;;;17.02;100.00
48792;BME280;34587;48.816;9.420;2023-09-30T07:33:23;99786.31;;;17.56;100.00
48792;BME280;34587;48.816;9.420;2023-09-30T07:35:48;99793.25;;;17.87;100.00
48792;BME280;34587;48.816;9.420;2023-09-30T07:38:14;99796.22;;;18.31;100.00
48792;BME280;34587;48.816;9.420;2023-09-30T07:40:40;99797.63;;;18.41;100.00
48792;BME280;34587;48.816;9.420;2023-09-30T07:43:05;99785.00;;;18.52;100.00
48792;BME280;34587;48.816;9.420;2023-09-30T07:45:30;99785.88;;;19.26;100.00
48792;BME280;34587;48.816;9.420;2023-09-30T07:47:56;99773.69;;;19.70;100.00
48792;BME280;34587;48.816;9.420;2023-09-30T07:50:23;99778.78;;;19.05;100.00
48792;BME280;34587;48.816;9.420;2023-09-30T07:52:48;99781.56;;;18.77;100.00
48792;BME280;34587;48.816;9.420;2023-09-30T07:55:14;99784.78;;;19.55;100.00
48792;BME280;34587;48.816;9.420;2023-09-30T07:57:40;99778.09;;;20.14;100.00
48792;BME280;34587;48.816;9.420;2023-09-30T08:00:10;99792.19;;;20.33;100.00
48792;BME280;34587;48.816;9.420;2023-09-30T08:02:40;99818.31;;;20.17;100.00
48792;BME280;34587;48.816;9.420;2023-09-30T08:05:06;99819.47;;;19.88;100.00
48792;BME280;34587;48.816;9.420;2023-09-30T08:07:32;99800.44;;;19.58;100.00
48792;BME280;34587;48.816;9.420;2023-09-30T08:09:58;99808.91;;;19.43;100.00
48792;BME280;34587;48.816;9.420;2023-09-30T08:12:23;99804.38;;;19.23;100.00
48792;BME280;34587;48.816;9.420;2023-09-30T08:14:49;99804.72;;;19.37;100.00
48792;BME280;34587;48.816;9.420;2023-09-30T08:17:16;99793.44;;;20.67;100.00
48792;BME280;34587;48.816;9.420;2023-09-30T08:19:42;99779.50;;;22.17;91.65
48792;BME280;34587;48.816;9.420;2023-09-30T08:22:08;99774.09;;;24.32;71.96
48792;BME280;34587;48.816;9.420;2023-09-30T08:24:34;99786.41;;;24.63;69.66
48792;BME280;34587;48.816;9.420;2023-09-30T08:27:00;99779.66;;;27.55;54.59
48792;BME280;34587;48.816;9.420;2023-09-30T08:29:26;99782.63;;;28.00;52.57
48792;BME280;34587;48.816;9.420;2023-09-30T08:31:51;99777.78;;;27.44;53.02
48792;BME280;34587;48.816;9.420;2023-09-30T08:34:16;99773.66;;;28.60;49.85
48792;BME280;34587;48.816;9.420;2023-09-30T08:36:43;99782.91;;;28.08;50.09
48792;BME280;34587;48.816;9.420;2023-09-30T08:39:08;99786.88;;;28.97;47.47
48792;BME280;34587;48.816;9.420;2023-09-30T08:41:35;99783.72;;;28.56;47.36
48792;BME280;34587;48.816;9.420;2023-09-30T08:44:01;99777.88;;;28.98;46.98
48792;BME280;34587;48.816;9.420;2023-09-30T08:46:32;99777.41;;;29.60;44.61
48792;BME280;34587;48.816;9.420;2023-09-30T08:48:58;99769.66;;;30.32;42.44
48792;BME280;34587;48.816;9.420;2023-09-30T08:51:25;99767.78;;;30.86;41.13
48792;BME280;34587;48.816;9.420;2023-09-30T08:56:21;99778.34;;;29.25;44.57
48792;BME280;34587;48.816;9.420;2023-09-30T08:58:49;99779.31;;;31.47;40.57
48792;BME280;34587;48.816;9.420;2023-09-30T09:01:16;99788.06;;;29.71;43.13
48792;BME280;34587;48.816;9.420;2023-09-30T09:03:41;99777.91;;;28.62;44.75
48792;BME280;34587;48.816;9.420;2023-09-30T09:06:06;99786.88;;;27.78;47.79
48792;BME280;34587;48.816;9.420;2023-09-30T09:08:32;99777.53;;;29.36;43.46
48792;BME280;34587;48.816;9.420;2023-09-30T09:10:59;99752.78;;;32.33;38.27
48792;BME280;34587;48.816;9.420;2023-09-30T09:13:26;99770.34;;;29.70;41.66
48792;BME280;34587;48.816;9.420;2023-09-30T09:16:09;99779.28;;;28.90;43.36
48792;BME280;34587;48.816;9.420;2023-09-30T09:18:35;99786.00;;;28.26;44.89
48792;BME280;34587;48.816;9.420;2023-09-30T09:21:14;99775.13;;;29.99;42.25
48792;BME280;34587;48.816;9.420;2023-09-30T09:23:42;99778.78;;;30.30;41.65
48792;BME280;34587;48.816;9.420;2023-09-30T09:26:09;99788.53;;;31.55;39.06
48792;BME280;34587;48.816;9.420;2023-09-30T09:28:35;99784.38;;;31.41;38.57
48792;BME280;34587;48.816;9.420;2023-09-30T09:31:19;99789.72;;;29.94;41.85
48792;BME280;34587;48.816;9.420;2023-09-30T09:33:45;99795.69;;;28.51;44.45
48792;BME280;34587;48.816;9.420;2023-09-30T09:36:10;99791.41;;;27.39;47.98
48792;BME280;34587;48.816;9.420;2023-09-30T09:38:49;99786.81;;;28.15;46.72
48792;BME280;34587;48.816;9.420;2023-09-30T09:41:15;99778.38;;;29.36;43.32
48792;BME280;34587;48.816;9.420;2023-09-30T09:43:41;99768.31;;;30.27;40.45
48792;BME280;34587;48.816;9.420;2023-09-30T09:46:08;99765.34;;;30.41;39.78
48792;BME280;34587;48.816;9.420;2023-09-30T09:48:37;99767.97;;;31.74;37.18
48792;BME280;34587;48.816;9.420;2023-09-30T09:51:04;99766.63;;;32.19;35.92
48792;BME280;34587;48.816;9.420;2023-09-30T09:53:34;99770.09;;;33.80;33.16
48792;BME280;34587;48.816;9.420;2023-09-30T09:56:01;99763.66;;;34.44;32.96
48792;BME280;34587;48.816;9.420;2023-09-30T09:58:32;99766.31;;;33.55;32.89
48792;BME280;34587;48.816;9.420;2023-09-30T10:01:00;99771.69;;;34.00;33.14
48792;BME280;34587;48.816;9.420;2023-09-30T10:03:26;99773.13;;;32.26;35.22
48792;BME280;34587;48.816;9.420;2023-09-30T10:05:51;99774.41;;;32.03;35.21
48792;BME280;34587;48.816;9.420;2023-09-30T10:08:20;99763.31;;;30.33;36.56
48792;BME280;34587;48.816;9.420;2023-09-30T10:10:47;99756.97;;;31.68;35.81
48792;BME280;34587;48.816;9.420;2023-09-30T10:13:51;99761.97;;;30.81;36.41
48792;BME280;34587;48.816;9.420;2023-09-30T10:19:08;99759.88;;;31.15;35.74
48792;BME280;34587;48.816;9.420;2023-09-30T10:21:33;99752.47;;;30.56;37.64
48792;BME280;34587;48.816;9.420;2023-09-30T10:24:38;99740.66;;;33.05;32.90
48792;BME280;34587;48.816;9.420;2023-09-30T10:40:48;99738.72;;;30.18;36.82
48792;BME280;34587;48.816;9.420;2023-09-30T10:43:32;99731.38;;;31.14;35.87
48792;BME280;34587;48.816;9.420;2023-09-30T10:48:42;99734.69;;;30.24;36.44
48792;BME280;34587;48.816;9.420;2023-09-30T10:51:18;99734.63;;;31.08;35.99
48792;BME280;34587;48.816;9.420;2023-09-30T10:53:54;99725.81;;;31.86;34.66
48792;BME280;34587;48.816;9.420;2023-09-30T10:56:32;99718.78;;;31.95;34.15
48792;BME280;34587;48.816;9.420;2023-09-30T10:58:57;99715.25;;;30.94;35.07
48792;BME280;34587;48.816;9.420;2023-09-30T11:01:24;99706.59;;;32.49;32.95
48792;BME280;34587;48.816;9.420;2023-09-30T11:03:50;99715.47;;;31.53;33.61
48792;BME280;34587;48.816;9.420;2023-09-30T11:06:23;99696.75;;;34.75;29.89
48792;BME280;34587;48.816;9.420;2023-09-30T11:08:55;99709.38;;;32.67;32.27
48792;BME280;34587;48.816;9.420;2023-09-30T11:14:01;99698.13;;;32.34;32.03
48792;BME280;34587;48.816;9.420;2023-09-30T11:16:26;99685.53;;;33.56;29.69
48792;BME280;34587;48.816;9.420;2023-09-30T11:18:54;99678.78;;;34.49;29.26
48792;BME280;34587;48.816;9.420;2023-09-30T11:21:22;99682.78;;;34.01;29.57
48792;BME280;34587;48.816;9.420;2023-09-30T11:23:47;99672.69;;;33.68;30.33
48792;BME280;34587;48.816;9.420;2023-09-30T11:26:12;99687.97;;;32.94;31.79
48792;BME280;34587;48.816;9.420;2023-09-30T11:28:44;99673.13;;;32.43;33.49
48792;BME280;34587;48.816;9.420;2023-09-30T11:31:11;99669.53;;;31.86;32.21
48792;BME280;34587;48.816;9.420;2023-09-30T11:33:51;99676.00;;;32.13;32.29
48792;BME280;34587;48.816;9.420;2023-09-30T11:36:21;99670.59;;;32.52;31.96
48792;BME280;34587;48.816;9.420;2023-09-30T11:38:48;99676.03;;;33.07;30.98
48792;BME280;34587;48.816;9.420;2023-09-30T11:41:14;99678.22;;;32.46;31.45
48792;BME280;34587;48.816;9.420;2023-09-30T11:43:58;99683.69;;;30.88;33.01
48792;BME280;34587;48.816;9.420;2023-09-30T11:46:24;99686.56;;;29.49;34.80
48792;BME280;34587;48.816;9.420;2023-09-30T11:49:04;99682.34;;;28.34;36.26
48792;BME280;34587;48.816;9.420;2023-09-30T11:51:42;99686.88;;;28.21;36.76
48792;BME280;34587;48.816;9.420;2023-09-30T11:54:08;99699.34;;;24.71;41.62
48792;BME280;34587;48.816;9.420;2023-09-30T11:56:33;99694.03;;;24.27;44.14
48792;BME280;34587;48.816;9.420;2023-09-30T11:58:59;99685.81;;;24.31;44.35
48792;BME280;34587;48.816;9.420;2023-09-30T12:01:24;99678.47;;;24.36;44.40
48792;BME280;34587;48.816;9.420;2023-09-30T12:03:50;99676.63;;;24.67;41.84
48792;BME280;34587;48.816;9.420;2023-09-30T12:06:17;99673.09;;;25.51;41.31
48792;BME280;34587;48.816;9.420;2023-09-30T12:08:42;99684.63;;;25.64;41.33
48792;BME280;34587;48.816;9.420;2023-09-30T12:11:08;99687.06;;;25.40;42.29
48792;BME280;34587;48.816;9.420;2023-09-30T12:13:38;99693.22;;;25.41;42.60
48792;BME280;34587;48.816;9.420;2023-09-30T12:16:03;99704.50;;;26.76;40.95
48792;BME280;34587;48.816;9.420;2023-09-30T12:18:28;99688.81;;;26.08;43.32
48792;BME280;34587;48.816;9.420;2023-09-30T12:20:53;99690.13;;;25.61;43.44
48792;BME280;34587;48.816;9.420;2023-09-30T12:23:19;99706.59;;;22.82;49.93
48792;BME280;34587;48.816;9.420;2023-09-30T12:25:48;99695.56;;;23.23;48.98
48792;BME280;34587;48.816;9.420;2023-09-30T12:28:13;99693.50;;;23.44;49.57
48792;BME280;34587;48.816;9.420;2023-09-30T12:30:43;99690.78;;;22.48;53.38
48792;BME280;34587;48.816;9.420;2023-09-30T12:33:08;99684.44;;;22.35;53.17
48792;BME280;34587;48.816;9.420;2023-09-30T12:35:34;99679.00;;;22.03;53.93
48792;BME280;34587;48.816;9.420;2023-09-30T12:37:59;99674.97;;;22.13;53.47
48792;BME280;34587;48.816;9.420;2023-09-30T12:40:25;99675.84;;;22.64;51.89
48792;BME280;34587;48.816;9.420;2023-09-30T12:42:50;99671.84;;;23.06;49.60
48792;BME280;34587;48.816;9.420;2023-09-30T12:45:15;99668.31;;;23.84;46.75
48792;BME280;34587;48.816;9.420;2023-09-30T12:47:43;99669.53;;;23.93;47.70
48792;BME280;34587;48.816;9.420;2023-09-30T12:50:08;99670.97;;;24.29;44.81
48792;BME280;34587;48.816;9.420;2023-09-30T12:52:34;99660.91;;;24.78;43.71
48792;BME280;34587;48.816;9.420;2023-09-30T12:55:00;99664.69;;;24.60;44.27
48792;BME280;34587;48.816;9.420;2023-09-30T12:57:25;99667.59;;;23.67;46.57
48792;BME280;34587;48.816;9.420;2023-09-30T12:59:51;99672.28;;;22.81;48.27
48792;BME280;34587;48.816;9.420;2023-09-30T13:02:16;99678.50;;;23.29;47.27
48792;BME280;34587;48.816;9.420;2023-09-30T13:04:43;99662.59;;;23.76;46.57
48792;BME280;34587;48.816;9.420;2023-09-30T13:07:09;99668.09;;;23.10;47.86
48792;BME280;34587;48.816;9.420;2023-09-30T13:09:36;99670.59;;;22.80;50.36
48792;BME280;34587;48.816;9.420;2023-09-30T13:12:02;99658.09;;;23.47;48.99
48792;BME280;34587;48.816;9.420;2023-09-30T13:14:28;99654.19;;;23.22;49.70
48792;BME280;34587;48.816;9.420;2023-09-30T13:16:53;99660.06;;;22.96;49.14
48792;BME280;34587;48.816;9.420;2023-09-30T13:19:19;99657.28;;;22.81;50.54
48792;BME280;34587;48.816;9.420;2023-09-30T13:21:47;99644.72;;;23.18;48.01
48792;BME280;34587;48.816;9.420;2023-09-30T13:24:12;99647.13;;;23.07;48.79
48792;BME280;34587;48.816;9.420;2023-09-30T13:26:37;99639.78;;;23.12;48.76
48792;BME280;34587;48.816;9.420;2023-09-30T13:29:03;99638.00;;;23.13;49.83
48792;BME280;34587;48.816;9.420;2023-09-30T13:31:30;99635.69;;;22.24;53.53
48792;BME280;34587;48.816;9.420;2023-09-30T13:33:56;99625.81;;;22.28;53.35
48792;BME280;34587;48.816;9.420;2023-09-30T13:36:21;99625.50;;;21.99;54.27
48792;BME280;34587;48.816;9.420;2023-09-30T13:38:46;99622.00;;;21.99;55.33
48792;BME280;34587;48.816;9.420;2023-09-30T13:41:11;99625.56;;;22.81;51.05
48792;BME280;34587;48.816;9.420;2023-09-30T13:43:37;99625.13;;;23.22;49.81
48792;BME280;34587;48.816;9.420;2023-09-30T13:46:04;99632.63;;;22.98;50.36
48792;BME280;34587;48.816;9.420;2023-09-30T13:48:32;99635.78;;;22.89;51.91
48792;BME280;34587;48.816;9.420;2023-09-30T13:51:05;99632.38;;;22.70;53.36
48792;BME280;34587;48.816;9.420;2023-09-30T13:53:31;99637.81;;;22.51;53.44
48792;BME280;34587;48.816;9.420;2023-09-30T13:55:56;99642.50;;;21.94;56.44
48792;BME280;34587;48.816;9.420;2023-09-30T13:58:21;99641.53;;;22.47;55.48
48792;BME280;34587;48.816;9.420;2023-09-30T14:00:47;99640.19;;;21.88;56.20
48792;BME280;34587;48.816;9.420;2023-09-30T14:03:19;99634.88;;;21.70;57.60
48792;BME280;34587;48.816;9.420;2023-09-30T14:05:45;99637.69;;;21.85;60.24
48792;BME280;34587;48.816;9.420;2023-09-30T14:08:11;99635.91;;;21.13;58.44
48792;BME280;34587;48.816;9.420;2023-09-30T14:10:37;99627.56;;;21.03;59.17
48792;BME280;34587;48.816;9.420;2023-09-30T14:13:03;99618.59;;;21.79;57.42
48792;BME280;34587;48.816;9.420;2023-09-30T14:15:29;99612.09;;;21.87;56.26
48792;BME280;34587;48.816;9.420;2023-09-30T14:17:56;99618.06;;;21.73;57.73
48792;BME280;34587;48.816;9.420;2023-09-30T14:20:23;99616.25;;;21.56;58.47
48792;BME280;34587;48.816;9.420;2023-09-30T14:22:48;99621.16;;;21.27;58.85
48792;BME280;34587;48.816;9.420;2023-09-30T14:25:13;99621.28;;;21.61;58.77
48792;BME280;34587;48.816;9.420;2023-09-30T14:27:39;99623.81;;;21.81;59.23
48792;BME280;34587;48.816;9.420;2023-09-30T14:30:06;99630.59;;;21.33;60.30
48792;BME280;34587;48.816;9.420;2023-09-30T14:32:31;99621.03;;;21.30;62.09
48792;BME280;34587;48.816;9.420;2023-09-30T14:34:57;99610.53;;;21.29;61.62
48792;BME280;34587;48.816;9.420;2023-09-30T14:37:22;99621.09;;;20.72;62.98
48792;BME280;34587;48.816;9.420;2023-09-30T14:39:48;99627.41;;;20.89;63.98
48792;BME280;34587;48.816;9.420;2023-09-30T14:42:13;99621.28;;;21.24;62.27
48792;BME280;34587;48.816;9.420;2023-09-30T14:44:38;99608.50;;;20.98;63.03
48792;BME280;34587;48.816;9.420;2023-09-30T14:47:04;99618.88;;;21.39;61.78
48792;BME280;34587;48.816;9.420;2023-09-30T14:49:33;99609.13;;;21.58;60.21
48792;BME280;34587;48.816;9.420;2023-09-30T14:51:58;99619.03;;;20.98;62.06
48792;BME280;34587;48.816;9.420;2023-09-30T14:54:24;99616.16;;;20.46;63.87
48792;BME280;34587;48.816;9.420;2023-09-30T14:56:49;99607.34;;;20.47;64.39
48792;BME280;34587;48.816;9.420;2023-09-30T14:59:14;99614.41;;;20.45;65.68
48792;BME280;34587;48.816;9.420;2023-09-30T15:01:40;99616.16;;;20.25;66.30
48792;BME280;34587;48.816;9.420;2023-09-30T15:04:05;99617.06;;;20.65;65.96
48792;BME280;34587;48.816;9.420;2023-09-30T15:06:32;99606.34;;;21.06;63.05
48792;BME280;34587;48.816;9.420;2023-09-30T15:09:02;99612.00;;;20.79;63.19
48792;BME280;34587;48.816;9.420;2023-09-30T15:11:29;99608.22;;;20.66;64.66
48792;BME280;34587;48.816;9.420;2023-09-30T15:13:54;99613.34;;;20.69;64.27
48792;BME280;34587;48.816;9.420;2023-09-30T15:16:21;99612.16;;;20.76;64.25
48792;BME280;34587;48.816;9.420;2023-09-30T15:18:47;99624.16;;;20.63;66.32
48792;BME280;34587;48.816;9.420;2023-09-30T15:21:14;99619.91;;;20.61;65.80
48792;BME280;34587;48.816;9.420;2023-09-30T15:23:40;99623.03;;;20.88;66.13
48792;BME280;34587;48.816;9.420;2023-09-30T15:26:05;99620.75;;;20.61;64.77
48792;BME280;34587;48.816;9.420;2023-09-30T15:28:31;99617.47;;;20.56;66.06
48792;BME280;34587;48.816;9.420;2023-09-30T15:30:58;99612.28;;;20.73;64.97
48792;BME280;34587;48.816;9.420;2023-09-30T15:33:24;99612.91;;;20.60;64.97
48792;BME280;34587;48.816;9.420;2023-09-30T15:35:49;99612.66;;;20.45;66.54
48792;BME280;34587;48.816;9.420;2023-09-30T15:38:14;99614.56;;;20.42;65.75
48792;BME280;34587;48.816;9.420;2023-09-30T15:40:58;99613.53;;;20.25;65.81
48792;BME280;34587;48.816;9.420;2023-09-30T15:43:24;99609.22;;;20.43;64.53
48792;BME280;34587;48.816;9.420;2023-09-30T15:45:50;99614.84;;;20.36;64.05
48792;BME280;34587;48.816;9.420;2023-09-30T15:48:15;99611.53;;;20.31;65.18
48792;BME280;34587;48.816;9.420;2023-09-30T15:50:41;99617.88;;;20.06;66.46
48792;BME280;34587;48.816;9.420;2023-09-30T15:53:07;99618.53;;;20.11;64.70
48792;BME280;34587;48.816;9.420;2023-09-30T15:55:32;99618.44;;;19.94;66.05
48792;BME280;34587;48.816;9.420;2023-09-30T15:57:58;99615.88;;;19.92;67.40
48792;BME280;34587;48.816;9.420;2023-09-30T16:00:23;99618.81;;;19.85;66.64
48792;BME280;34587;48.816;9.420;2023-09-30T16:02:48;99619.56;;;19.88;65.77
48792;BME280;34587;48.816;9.420;2023-09-30T16:05:14;99613.09;;;19.75;65.95
48792;BME280;34587;48.816;9.420;2023-09-30T16:07:40;99616.19;;;19.64;67.19
48792;BME280;34587;48.816;9.420;2023-09-30T16:10:06;99623.13;;;19.65;67.74
48792;BME280;34587;48.816;9.420;2023-09-30T16:12:31;99618.34;;;19.53;67.59
48792;BME280;34587;48.816;9.420;2023-09-30T16:14:56;99615.78;;;19.51;68.77
48792;BME280;34587;48.816;9.420;2023-09-30T16:17:22;99610.59;;;19.50;69.68
48792;BME280;34587;48.816;9.420;2023-09-30T16:19:47;99613.84;;;19.35;71.55
48792;BME280;34587;48.816;9.420;2023-09-30T16:22:12;99619.59;;;19.22;73.11
48792;BME280;34587;48.816;9.420;2023-09-30T16:24:38;99610.06;;;19.20;73.24
48792;BME280;34587;48.816;9.420;2023-09-30T16:27:03;99613.78;;;19.14;74.36
48792;BME280;34587;48.816;9.420;2023-09-30T16:29:29;99619.19;;;19.11;75.19
48792;BME280;34587;48.816;9.420;2023-09-30T16:31:54;99612.50;;;19.03;75.22
48792;BME280;34587;48.816;9.420;2023-09-30T16:34:19;99613.59;;;18.97;75.99
48792;BME280;34587;48.816;9.420;2023-09-30T16:36:45;99625.25;;;18.90;76.26
48792;BME280;34587;48.816;9.420;2023-09-30T16:39:10;99622.84;;;18.84;76.42
48792;BME280;34587;48.816;9.420;2023-09-30T16:41:35;99625.34;;;18.63;77.94
48792;BME280;34587;48.816;9.420;2023-09-30T16:44:04;99630.84;;;18.57;77.70
48792;BME280;34587;48.816;9.420;2023-09-30T16:46:29;99628.75;;;18.65;76.77
48792;BME280;34587;48.816;9.420;2023-09-30T16:48:55;99628.81;;;18.40;79.79
48792;BME280;34587;48.816;9.420;2023-09-30T16:51:20;99627.19;;;18.38;79.07
48792;BME280;34587;48.816;9.420;2023-09-30T16:53:47;99630.31;;;18.22;81.23
48792;BME280;34587;48.816;9.420;2023-09-30T16:56:13;99637.63;;;18.14;83.97
48792;BME280;34587;48.816;9.420;2023-09-30T16:58:38;99642.28;;;18.06;84.97
48792;BME280;34587;48.816;9.420;2023-09-30T17:01:11;99640.09;;;17.94;86.65
48792;BME280;34587;48.816;9.420;2023-09-30T17:03:40;99643.91;;;17.84;87.42
48792;BME280;34587;48.816;9.420;2023-09-30T17:06:06;99642.31;;;17.80;88.08
48792;BME280;34587;48.816;9.420;2023-09-30T17:08:31;99648.44;;;17.79;89.94
48792;BME280;34587;48.816;9.420;2023-09-30T17:10:57;99649.84;;;17.62;91.37
48792;BME280;34587;48.816;9.420;2023-09-30T17:13:22;99645.88;;;17.51;93.90
48792;BME280;34587;48.816;9.420;2023-09-30T17:15:48;99643.38;;;17.46;93.70
48792;BME280;34587;48.816;9.420;2023-09-30T17:18:13;99639.56;;;17.83;95.00
48792;BME280;34587;48.816;9.420;2023-09-30T17:20:44;99650.13;;;17.53;98.43
48792;BME280;34587;48.816;9.420;2023-09-30T17:23:10;99651.97;;;17.51;95.84
48792;BME280;34587;48.816;9.420;2023-09-30T17:25:36;99649.41;;;17.21;100.00
48792;BME280;34587;48.816;9.420;2023-09-30T17:28:01;99660.31;;;17.08;100.00
48792;BME280;34587;48.816;9.420;2023-09-30T17:30:27;99655.19;;;17.03;100.00
48792;BME280;34587;48.816;9.420;2023-09-30T17:32:52;99655.41;;;16.97;100.00